Time;durP1;ratioP1;P1;durP2;ratioP2;P2;SDS_P1;SDS_P2;PMS_P1;PMS_P2;Temp;Humidity;BMP_temperature;BMP_pressure;BME280_temperature;BME280_humidity;BME280_pressure;Samples;Min_cycle;Max_cycle;Signal;HPM_P1;HPM_P2
2022/08/11 00:02:34;;;;;;;1.40;1.30;;;25.50;1.00;;;;;;5065789;28;20520;-79
2022/08/11 00:05:06;;;;;;;1.20;1.10;;;25.50;1.00;;;;;;5064052;28;20480;-79
2022/08/11 00:07:42;;;;;;;1.23;1.20;;;25.50;1.00;;;;;;5072989;28;20941;-79
2022/08/11 00:10:12;;;;;;;1.20;1.10;;;25.50;1.00;;;;;;5059432;28;21011;-79
2022/08/11 00:12:42;;;;;;;1.30;1.20;;;25.40;1.00;;;;;;5057818;28;20478;-79
2022/08/11 00:15:13;;;;;;;1.47;1.10;;;25.50;1.00;;;;;;5061382;28;20459;-79
2022/08/11 00:17:41;;;;;;;1.30;1.20;;;25.40;1.00;;;;;;5057858;28;20458;-80
2022/08/11 00:20:12;;;;;;;1.80;1.70;;;25.40;1.00;;;;;;5063207;28;20451;-78
2022/08/11 00:22:46;;;;;;;2.23;1.40;;;25.40;1.00;;;;;;5064555;28;20488;-79
2022/08/11 00:25:16;;;;;;;1.63;1.20;;;25.40;1.00;;;;;;5064542;28;20462;-80
2022/08/11 00:27:46;;;;;;;1.47;1.37;;;25.40;1.00;;;;;;5062169;28;20453;-81
2022/08/11 00:30:17;;;;;;;1.60;1.20;;;25.40;1.00;;;;;;5061867;28;20991;-79
2022/08/11 00:32:52;;;;;;;1.50;1.40;;;25.40;1.00;;;;;;5065835;28;20475;-79
2022/08/11 00:35:27;;;;;;;1.30;1.20;;;25.30;1.00;;;;;;5062577;28;20448;-79
2022/08/11 00:38:15;;;;;;;1.47;1.33;;;25.40;1.00;;;;;;5060406;28;20829;-80
2022/08/11 00:40:52;;;;;;;2.17;1.20;;;25.30;1.00;;;;;;5059367;28;20447;-79
2022/08/11 00:43:34;;;;;;;3.10;1.30;;;25.30;1.00;;;;;;5064711;28;21239;-79
2022/08/11 00:46:13;;;;;;;1.50;1.40;;;25.30;1.00;;;;;;5065037;28;20466;-79
2022/08/11 00:48:55;;;;;;;1.50;1.40;;;25.30;1.00;;;;;;5061618;28;20442;-79
2022/08/11 00:51:42;;;;;;;1.23;1.20;;;25.30;1.00;;;;;;5063390;28;20489;-80
2022/08/11 00:55:12;;;;;;;1.67;1.50;;;25.30;1.00;;;;;;5060226;28;21037;-80
2022/08/11 00:58:13;;;;;;;2.90;1.43;;;25.20;1.00;;;;;;5064069;28;20531;-80
2022/08/11 01:01:10;;;;;;;5.80;1.30;;;25.20;1.00;;;;;;5060294;28;20493;-79
2022/08/11 01:04:11;;;;;;;1.53;1.33;;;25.20;1.00;;;;;;5064269;28;20457;-79
2022/08/11 01:07:28;;;;;;;1.57;1.47;;;25.20;1.00;;;;;;5062860;28;20450;-78
2022/08/11 01:10:44;;;;;;;2.57;1.30;;;25.10;1.00;;;;;;5060159;28;20451;-79
2022/08/11 01:13:29;;;;;;;2.50;1.20;;;25.10;1.00;;;;;;5060289;28;20458;-79
2022/08/11 01:16:21;;;;;;;1.40;1.30;;;25.10;1.00;;;;;;5062872;28;20457;-79
2022/08/11 01:19:20;;;;;;;2.10;1.57;;;25.00;1.00;;;;;;5064641;28;20528;-79
2022/08/11 01:22:23;;;;;;;2.03;1.40;;;25.00;1.00;;;;;;5058322;28;20459;-78
2022/08/11 01:25:26;;;;;;;1.47;1.37;;;25.00;1.00;;;;;;5063061;28;20453;-78
2022/08/11 01:28:32;;;;;;;3.27;1.20;;;25.00;1.00;;;;;;5044286;28;20483;-78
2022/08/11 01:31:46;;;;;;;2.60;1.40;;;25.00;1.00;;;;;;5060617;28;20544;-77
2022/08/11 01:35:09;;;;;;;1.63;1.53;;;25.00;1.00;;;;;;5059753;28;20465;-78
2022/08/11 01:38:08;;;;;;;1.30;1.20;;;25.00;1.00;;;;;;5062489;28;20516;-78
2022/08/11 01:41:05;;;;;;;3.10;1.27;;;25.00;1.00;;;;;;5064433;28;21021;-79
2022/08/11 01:46:56;;;;;;;1.47;1.37;;;24.90;1.00;;;;;;5061740;28;20447;-78
2022/08/11 01:49:31;;;;;;;2.03;1.57;;;24.90;1.00;;;;;;5062804;28;20461;-78
2022/08/11 01:52:26;;;;;;;3.03;1.20;;;24.80;1.00;;;;;;5062448;28;20478;-78
2022/08/11 01:55:12;;;;;;;1.40;1.30;;;24.80;1.00;;;;;;5059785;28;20515;-78
2022/08/11 01:57:47;;;;;;;1.57;1.40;;;24.80;1.00;;;;;;5063933;28;20810;-78
2022/08/11 02:00:19;;;;;;;1.30;1.20;;;24.80;1.00;;;;;;5091390;28;21766;-78
2022/08/11 02:02:53;;;;;;;2.17;1.33;;;24.80;1.00;;;;;;5063574;28;20478;-79
2022/08/11 02:05:39;;;;;;;1.30;1.20;;;24.80;1.00;;;;;;5060483;28;20820;-78
2022/08/11 02:08:15;;;;;;;2.40;1.30;;;24.80;1.00;;;;;;5061168;28;21003;-79
2022/08/11 02:13:47;;;;;;;1.60;1.50;;;24.70;1.00;;;;;;5064017;28;20470;-78
2022/08/11 02:16:39;;;;;;;2.23;1.30;;;24.70;1.00;;;;;;5061748;28;20447;-78
2022/08/11 02:25:04;;;;;;;1.50;1.40;;;24.60;1.00;;;;;;5063527;28;21051;-79
2022/08/11 02:27:41;;;;;;;1.60;1.50;;;24.60;1.00;;;;;;5067261;28;20461;-78
2022/08/11 02:30:13;;;;;;;1.80;1.33;;;24.50;1.00;;;;;;5066096;28;20450;-79
2022/08/11 02:35:46;;;;;;;1.87;1.50;;;24.50;1.00;;;;;;5065811;28;20529;-78
2022/08/11 02:38:25;;;;;;;1.70;1.60;;;24.50;1.00;;;;;;5066724;28;20529;-79
2022/08/11 02:44:09;;;;;;;2.03;1.83;;;24.50;1.00;;;;;;5066702;28;20458;-78
2022/08/11 02:46:50;;;;;;;1.70;1.40;;;24.50;1.00;;;;;;5066034;28;20465;-79
2022/08/11 02:52:41;;;;;;;1.60;1.50;;;24.40;1.00;;;;;;5067470;28;20517;-78
2022/08/11 02:55:22;;;;;;;2.00;1.37;;;24.40;1.00;;;;;;5061720;28;20515;-79
2022/08/11 02:58:17;;;;;;;1.67;1.57;;;24.40;1.00;;;;;;5057471;28;20794;-79
2022/08/11 03:01:03;;;;;;;2.40;1.47;;;24.40;1.00;;;;;;5063075;28;20495;-77
2022/08/11 03:03:37;;;;;;;1.40;1.30;;;24.30;1.00;;;;;;5063875;28;20467;-77
2022/08/11 03:06:12;;;;;;;2.07;1.47;;;24.30;1.00;;;;;;5097911;28;20466;-79
2022/08/11 03:08:54;;;;;;;1.70;1.60;;;24.30;1.00;;;;;;5067530;28;20450;-79
2022/08/11 03:17:40;;;;;;;1.60;1.50;;;24.20;1.00;;;;;;5057241;28;20450;-78
2022/08/11 03:20:26;;;;;;;2.00;1.90;;;24.20;1.00;;;;;;5064800;28;20455;-79
2022/08/11 03:23:30;;;;;;;2.20;1.50;;;24.20;1.00;;;;;;5062726;28;20461;-79
2022/08/11 03:26:09;;;;;;;2.40;1.43;;;24.20;1.00;;;;;;5062620;28;20512;-78
2022/08/11 03:28:47;;;;;;;1.90;1.80;;;24.10;1.00;;;;;;5061888;28;20447;-79
2022/08/11 03:31:24;;;;;;;2.43;2.07;;;24.10;1.00;;;;;;5060114;28;20470;-77
2022/08/11 03:34:02;;;;;;;2.03;1.60;;;24.10;1.00;;;;;;5064494;28;21001;-79
2022/08/11 03:41:41;;;;;;;2.17;1.53;;;24.10;1.00;;;;;;5067246;28;20454;-80
2022/08/11 03:43:17;;;;;;;1.60;1.50;;;24.10;1.00;;;;;;5065619;28;20997;-80
2022/08/11 03:45:58;;;;;;;4.03;1.50;;;24.10;1.00;;;;;;5060131;28;20462;-81
2022/08/11 03:48:38;;;;;;;1.60;1.50;;;24.10;1.00;;;;;;5062368;28;20537;-80
2022/08/11 03:51:18;;;;;;;2.03;1.93;;;24.10;1.00;;;;;;5060110;28;21549;-79
2022/08/11 03:54:12;;;;;;;1.53;1.43;;;24.10;1.00;;;;;;5065831;28;20469;-79
2022/08/11 03:57:39;;;;;;;1.90;1.60;;;24.10;1.00;;;;;;5063469;28;20447;-79
2022/08/11 04:00:38;;;;;;;1.80;1.70;;;24.10;1.00;;;;;;5064254;28;21422;-79
2022/08/11 04:03:45;;;;;;;1.50;1.40;;;24.00;1.00;;;;;;5063201;28;20445;-80
2022/08/11 04:06:57;;;;;;;1.60;1.50;;;24.00;1.00;;;;;;5060738;28;20446;-79
2022/08/11 04:09:58;;;;;;;1.80;1.70;;;23.90;1.00;;;;;;5064264;28;20461;-79
2022/08/11 04:12:54;;;;;;;2.03;1.93;;;23.90;1.00;;;;;;5061924;28;20550;-79
2022/08/11 04:15:59;;;;;;;1.63;1.50;;;23.90;1.00;;;;;;5078389;28;20458;-79
2022/08/11 04:19:24;;;;;;;2.30;1.60;;;23.80;1.00;;;;;;5065484;28;20962;-78
2022/08/11 04:22:30;;;;;;;1.80;1.60;;;23.80;1.00;;;;;;5057379;28;20478;-79
2022/08/11 04:25:12;;;;;;;2.67;2.30;;;23.70;1.00;;;;;;5097717;28;20438;-79
2022/08/11 04:28:04;;;;;;;2.20;1.63;;;23.80;1.00;;;;;;5065522;28;20458;-79
2022/08/11 04:30:51;;;;;;;2.33;1.47;;;23.80;1.00;;;;;;5063804;28;20474;-80
2022/08/11 04:33:48;;;;;;;1.90;1.80;;;23.80;1.00;;;;;;5065301;28;20557;-79
2022/08/11 04:40:34;;;;;;;2.07;1.47;;;23.80;1.00;;;;;;4998635;28;20541;-78
2022/08/11 04:43:31;;;;;;;1.87;1.70;;;23.80;1.00;;;;;;5003066;28;20448;-79
2022/08/11 04:46:18;;;;;;;3.50;1.90;;;23.80;1.00;;;;;;5063862;28;20869;-77
2022/08/11 05:01:42;;;;;;;1.83;1.50;;;23.70;1.00;;;;;;5063853;28;20220;-78
2022/08/11 05:07:53;;;;;;;1.77;1.67;;;23.70;1.00;;;;;;5062355;28;20481;-79
2022/08/11 05:10:43;;;;;;;2.23;2.03;;;23.70;1.00;;;;;;5060728;28;20447;-77
2022/08/11 05:36:28;;;;;;;2.07;1.80;;;23.70;1.00;;;;;;5065758;28;20451;-79
2022/08/11 05:56:18;;;;;;;1.80;1.70;;;24.00;1.00;;;;;;5074279;28;20503;-77
2022/08/11 05:58:49;;;;;;;7.03;1.97;;;24.00;1.00;;;;;;5075308;28;20450;-77
2022/08/11 06:01:24;;;;;;;1.60;1.50;;;24.00;1.00;;;;;;5077616;28;20485;-76
2022/08/11 06:04:14;;;;;;;2.60;1.60;;;24.00;1.00;;;;;;5075650;28;20464;-77
2022/08/11 06:06:53;;;;;;;2.20;2.00;;;24.10;1.00;;;;;;5068636;28;20966;-77
2022/08/11 06:09:24;;;;;;;1.67;1.47;;;24.10;1.00;;;;;;5067295;28;20516;-78
2022/08/11 06:11:53;;;;;;;2.80;1.90;;;24.20;1.00;;;;;;5071994;28;20461;-77
2022/08/11 06:14:22;;;;;;;1.60;1.50;;;24.30;1.00;;;;;;5076702;28;20474;-77
2022/08/11 06:16:58;;;;;;;1.80;1.70;;;24.30;1.00;;;;;;5083348;28;20476;-77
2022/08/11 06:19:34;;;;;;;2.23;1.67;;;24.40;1.00;;;;;;5075535;28;21067;-77
2022/08/11 06:22:04;;;;;;;1.98;1.88;;;24.50;1.00;;;;;;5076558;28;21062;-78
2022/08/11 06:24:34;;;;;;;2.00;1.90;;;24.50;1.00;;;;;;5071742;28;20921;-79
2022/08/11 06:27:05;;;;;;;2.23;1.87;;;24.70;1.00;;;;;;5070744;28;20450;-78
2022/08/11 06:29:50;;;;;;;2.13;2.03;;;24.80;1.00;;;;;;5069169;28;20486;-78
2022/08/11 06:32:27;;;;;;;2.23;1.60;;;24.90;1.00;;;;;;5073683;28;20478;-78
2022/08/11 06:35:10;;;;;;;2.47;2.07;;;25.00;1.00;;;;;;5061897;28;20485;-78
2022/08/11 06:37:48;;;;;;;2.33;1.80;;;25.00;1.00;;;;;;5061856;28;20470;-78
2022/08/11 06:43:45;;;;;;;2.00;1.80;;;25.30;1.70;;;;;;5065434;28;20477;-78
2022/08/11 06:46:30;;;;;;;3.90;1.60;;;25.60;3.30;;;;;;5064915;28;20462;-79
2022/08/11 06:49:02;;;;;;;2.13;1.60;;;25.80;5.30;;;;;;5074595;28;20458;-79
2022/08/11 06:51:30;;;;;;;2.17;1.90;;;25.90;6.50;;;;;;5072892;28;20474;-78
2022/08/11 06:54:01;;;;;;;1.70;1.60;;;26.10;9.50;;;;;;5076453;28;21203;-79
2022/08/11 07:02:33;;;;;;;1.77;1.67;;;26.50;9.40;;;;;;5074540;28;20479;-78
2022/08/11 07:05:08;;;;;;;2.00;1.80;;;26.60;11.10;;;;;;5074113;28;20458;-78
2022/08/11 07:17:11;;;;;;;2.40;1.87;;;27.10;14.00;;;;;;5074341;28;20483;-79
2022/08/11 07:31:03;;;;;;;1.70;1.60;;;27.40;14.80;;;;;;5063766;28;20489;-78
2022/08/11 07:33:40;;;;;;;3.17;1.70;;;27.40;14.50;;;;;;5068767;28;20482;-79
2022/08/11 07:36:31;;;;;;;2.90;2.07;;;27.40;21.30;;;;;;5071467;28;20453;-79
2022/08/11 07:39:01;;;;;;;2.50;1.67;;;27.40;14.80;;;;;;5069679;28;20454;-78
2022/08/11 07:41:34;;;;;;;1.90;1.80;;;27.50;15.10;;;;;;5062872;28;20474;-78
2022/08/11 07:44:08;;;;;;;1.90;1.80;;;27.50;15.30;;;;;;5065693;28;20531;-78
2022/08/11 07:52:28;;;;;;;5.03;2.47;;;27.50;15.30;;;;;;5070255;28;20466;-78
2022/08/11 07:54:59;;;;;;;2.10;1.70;;;27.60;14.80;;;;;;5066723;28;20508;-78
2022/08/11 08:20:40;;;;;;;2.60;1.80;;;27.50;13.30;;;;;;5067687;28;20542;-77
2022/08/11 08:23:09;;;;;;;1.70;1.43;;;27.50;12.00;;;;;;5070966;28;20957;-78
2022/08/11 08:25:40;;;;;;;1.50;1.40;;;27.50;13.60;;;;;;5069101;28;20457;-78
2022/08/11 08:28:13;;;;;;;2.20;2.00;;;27.60;12.40;;;;;;5070009;28;20451;-77
2022/08/11 08:30:49;;;;;;;1.90;1.80;;;27.60;13.70;;;;;;5067630;28;20450;-78
2022/08/11 08:33:20;;;;;;;1.70;1.60;;;27.60;12.60;;;;;;5067922;28;20457;-79
2022/08/11 08:36:09;;;;;;;3.40;1.80;;;27.60;12.30;;;;;;5070293;28;22308;-78
2022/08/11 08:38:40;;;;;;;2.00;1.80;;;27.50;10.60;;;;;;5070534;28;20455;-78
2022/08/11 08:41:09;;;;;;;1.90;1.80;;;27.50;11.10;;;;;;5068106;28;20562;-78
2022/08/11 08:43:48;;;;;;;1.73;1.63;;;27.50;12.80;;;;;;5070268;28;20476;-78
2022/08/11 08:46:20;;;;;;;2.20;1.40;;;27.60;12.40;;;;;;5068901;28;20458;-78
2022/08/11 08:48:50;;;;;;;2.43;2.10;;;27.60;12.40;;;;;;5068417;28;21031;-78
2022/08/11 08:51:34;;;;;;;1.57;1.40;;;27.60;11.60;;;;;;5069632;28;20560;-78
2022/08/11 08:54:26;;;;;;;2.00;1.90;;;27.60;11.10;;;;;;5067120;28;20470;-78
2022/08/11 08:56:56;;;;;;;1.60;1.50;;;27.50;12.00;;;;;;5068388;28;20465;-78
2022/08/11 08:59:28;;;;;;;2.00;1.80;;;27.60;11.50;;;;;;5067969;28;20459;-78
2022/08/11 09:02:17;;;;;;;1.93;1.60;;;27.70;12.30;;;;;;5064890;28;20505;-78
2022/08/11 09:04:48;;;;;;;1.73;1.50;;;27.70;13.10;;;;;;5062605;28;20477;-79
2022/08/11 09:07:20;;;;;;;1.70;1.60;;;27.70;13.90;;;;;;5060484;28;20450;-79
2022/08/11 09:09:50;;;;;;;2.70;1.67;;;27.80;12.50;;;;;;5068644;28;20454;-78
2022/08/11 09:12:20;;;;;;;1.80;1.70;;;27.70;11.10;;;;;;5071866;28;20463;-78
2022/08/11 09:15:10;;;;;;;1.77;1.53;;;27.70;11.10;;;;;;5069512;28;20490;-78
2022/08/11 09:17:41;;;;;;;2.10;1.80;;;27.70;11.70;;;;;;5072126;28;20450;-78
2022/08/11 09:20:13;;;;;;;1.90;1.70;;;27.70;11.80;;;;;;5073254;28;20458;-79
2022/08/11 09:28:39;;;;;;;2.20;1.40;;;27.80;11.40;;;;;;5068712;28;20450;-78
2022/08/11 09:31:11;;;;;;;2.67;1.60;;;27.90;13.70;;;;;;5066994;28;20878;-78
2022/08/11 09:33:41;;;;;;;2.23;1.43;;;27.90;13.60;;;;;;5065284;28;20496;-78
2022/08/11 09:41:45;;;;;;;2.60;2.40;;;28.00;13.60;;;;;;5063408;28;20481;-79
2022/08/11 09:44:47;;;;;;;1.80;1.63;;;28.00;13.80;;;;;;5067640;28;20443;-78
2022/08/11 09:47:23;;;;;;;2.23;1.20;;;27.90;12.10;;;;;;5067369;28;20990;-78
2022/08/11 09:49:54;;;;;;;1.77;1.67;;;28.00;14.10;;;;;;5070290;28;20559;-78
2022/08/11 09:52:24;;;;;;;2.53;1.57;;;28.00;13.40;;;;;;5067980;28;20470;-78
2022/08/11 09:54:54;;;;;;;1.60;1.50;;;28.00;12.30;;;;;;5065812;28;20475;-80
2022/08/11 10:00:13;;;;;;;1.80;1.67;;;27.90;12.00;;;;;;5065216;28;20489;-78
2022/08/11 10:02:47;;;;;;;2.33;1.70;;;27.90;9.80;;;;;;5064093;28;20949;-78
2022/08/11 10:08:05;;;;;;;1.83;1.47;;;28.00;13.10;;;;;;5065700;28;20454;-79
2022/08/11 10:10:37;;;;;;;1.57;1.47;;;28.00;13.30;;;;;;5066514;28;20501;-80
2022/08/11 10:13:08;;;;;;;2.90;1.70;;;28.10;13.70;;;;;;5066691;28;20469;-79
2022/08/11 10:15:58;;;;;;;2.03;1.47;;;28.10;12.80;;;;;;5061453;28;20478;-79
2022/08/11 10:18:51;;;;;;;1.60;1.50;;;28.10;13.20;;;;;;5064603;28;20457;-79
2022/08/11 10:21:29;;;;;;;1.60;1.50;;;28.20;13.80;;;;;;5065645;28;20901;-78
2022/08/11 10:26:54;;;;;;;1.70;1.60;;;28.20;12.70;;;;;;5064841;28;20446;-79
2022/08/11 10:35:13;;;;;;;1.67;1.57;;;28.30;14.30;;;;;;5065959;28;20985;-79
2022/08/11 10:37:44;;;;;;;1.83;1.73;;;28.30;16.00;;;;;;5065332;28;20455;-79
2022/08/11 10:40:34;;;;;;;1.90;1.77;;;28.30;14.30;;;;;;5068372;28;20761;-78
2022/08/11 10:43:04;;;;;;;4.20;1.37;;;28.40;13.80;;;;;;5074856;28;20485;-79
2022/08/11 10:48:22;;;;;;;1.70;1.60;;;28.40;14.70;;;;;;5078474;28;20455;-78
2022/08/11 10:59:16;;;;;;;1.50;1.40;;;28.40;12.70;;;;;;5068002;28;20500;-79
2022/08/11 11:01:45;;;;;;;1.50;1.40;;;28.40;12.50;;;;;;5075402;28;20470;-78
2022/08/11 11:04:16;;;;;;;2.27;1.20;;;28.40;12.70;;;;;;5073846;28;20579;-79
2022/08/11 11:06:54;;;;;;;1.73;1.30;;;28.40;11.80;;;;;;5065432;28;20434;-78
2022/08/11 11:09:28;;;;;;;1.50;1.40;;;28.30;20.30;;;;;;5075709;28;20823;-78
2022/08/11 11:18:00;;;;;;;1.30;1.20;;;28.40;11.40;;;;;;5069701;28;20516;-78
2022/08/11 11:20:33;;;;;;;1.50;1.40;;;28.40;11.20;;;;;;5075079;28;20445;-78
2022/08/11 11:23:12;;;;;;;1.47;1.37;;;28.30;9.60;;;;;;5068862;28;20751;-78
2022/08/11 11:26:08;;;;;;;1.42;1.33;;;28.40;10.60;;;;;;5070093;28;20458;-79
2022/08/11 11:29:19;;;;;;;1.63;1.23;;;28.50;11.70;;;;;;5071285;28;20199;-78
2022/08/11 11:32:08;;;;;;;2.13;1.93;;;28.50;11.10;;;;;;5071358;28;20469;-78
2022/08/11 11:35:14;;;;;;;1.50;1.40;;;28.50;11.60;;;;;;5072765;28;20862;-77
2022/08/11 11:37:44;;;;;;;2.23;1.27;;;28.60;12.30;;;;;;5059478;28;20455;-79
2022/08/11 11:40:36;;;;;;;1.77;1.67;;;28.60;11.30;;;;;;5073011;28;20461;-78
2022/08/11 11:43:05;;;;;;;6.00;1.47;;;28.60;13.60;;;;;;5083500;28;20810;-78
2022/08/11 11:45:33;;;;;;;2.60;1.70;;;28.60;11.90;;;;;;5075740;28;20458;-77
2022/08/11 11:48:03;;;;;;;1.50;1.40;;;28.60;12.60;;;;;;5077728;28;20454;-79
2022/08/11 11:50:34;;;;;;;1.73;1.40;;;28.60;11.20;;;;;;5076698;28;20620;-79
2022/08/11 11:53:05;;;;;;;1.40;1.27;;;28.60;13.50;;;;;;5069704;28;20939;-77
2022/08/11 11:55:37;;;;;;;1.90;1.50;;;28.70;12.00;;;;;;5075042;28;20466;-77
2022/08/11 12:03:40;;;;;;;1.33;1.20;;;28.70;12.50;;;;;;5064644;28;20450;-77
2022/08/11 12:06:12;;;;;;;1.57;1.47;;;28.60;10.40;;;;;;5069955;28;20584;-78
2022/08/11 12:08:42;;;;;;;1.30;1.20;;;28.60;12.10;;;;;;5086627;28;20466;-76
2022/08/11 12:14:02;;;;;;;1.67;1.30;;;28.70;11.40;;;;;;5066998;28;20540;-81
2022/08/11 12:16:40;;;;;;;3.13;1.30;;;28.60;10.30;;;;;;5064063;28;20462;-81
2022/08/11 12:19:11;;;;;;;2.57;1.43;;;28.70;9.30;;;;;;5077680;28;21325;-81
2022/08/11 12:27:19;;;;;;;1.40;1.30;;;28.70;9.80;;;;;;5066979;28;20475;-80
2022/08/11 12:27:21;;;;;;;1.30;1.20;;;28.90;11.40;;;;;;5069681;28;20842;-81
2022/08/11 12:29:55;;;;;;;1.40;1.30;;;28.90;11.80;;;;;;5069891;28;20470;-81
2022/08/11 12:32:26;;;;;;;1.80;1.70;;;29.00;10.60;;;;;;5067616;28;20475;-82
2022/08/11 12:34:56;;;;;;;1.67;1.30;;;29.00;11.90;;;;;;5064094;28;20469;-81
2022/08/11 12:37:30;;;;;;;1.37;1.27;;;29.00;13.70;;;;;;5062276;28;20598;-81
2022/08/11 12:46:08;;;;;;;1.50;1.40;;;29.20;13.20;;;;;;5064035;28;21348;-81
2022/08/11 12:54:50;;;;;;;1.20;1.10;;;29.20;12.30;;;;;;5067498;28;20450;-81
2022/08/11 13:05:58;;;;;;;1.60;1.50;;;29.40;13.80;;;;;;5063904;28;20542;-81
2022/08/11 13:08:28;;;;;;;1.23;1.13;;;29.40;14.30;;;;;;5063048;28;20486;-82
2022/08/11 13:13:47;;;;;;;1.40;1.30;;;29.30;12.50;;;;;;5063313;28;20450;-81
2022/08/11 13:16:28;;;;;;;1.40;1.30;;;29.40;13.60;;;;;;5065040;28;22336;-81
2022/08/11 13:18:59;;;;;;;1.23;1.00;;;29.50;13.50;;;;;;5066746;28;20463;-82
2022/08/11 13:21:29;;;;;;;1.50;1.40;;;29.50;13.40;;;;;;5064661;28;20470;-81
2022/08/11 13:23:58;;;;;;;1.30;1.20;;;29.50;13.90;;;;;;5069237;28;20478;-81
2022/08/11 13:26:36;;;;;;;1.33;1.20;;;29.50;13.90;;;;;;5060759;28;20513;-81
2022/08/11 13:29:22;;;;;;;3.93;1.80;;;29.50;14.70;;;;;;5068722;28;20443;-80
2022/08/11 13:31:53;;;;;;;1.30;1.20;;;29.60;14.40;;;;;;5072056;28;20470;-82
2022/08/11 13:34:25;;;;;;;1.90;1.30;;;29.60;15.50;;;;;;5065163;28;21159;-82
2022/08/11 13:36:56;;;;;;;1.13;1.07;;;29.60;14.80;;;;;;5068139;28;20469;-80
2022/08/11 13:39:27;;;;;;;2.20;1.40;;;29.60;15.20;;;;;;5062044;28;20883;-82
2022/08/11 13:41:58;;;;;;;1.27;1.17;;;29.60;15.20;;;;;;5066903;28;20470;-81
2022/08/11 13:44:29;;;;;;;1.30;1.20;;;29.70;14.10;;;;;;5068653;28;20458;-82
2022/08/11 13:47:02;;;;;;;1.77;1.50;;;29.60;13.90;;;;;;5062059;28;20461;-78
2022/08/11 13:49:31;;;;;;;1.40;1.30;;;29.70;14.10;;;;;;5068294;28;20459;-79
2022/08/11 13:52:00;;;;;;;1.87;1.30;;;29.60;13.90;;;;;;5067859;28;20469;-79
2022/08/11 13:54:31;;;;;;;1.30;1.20;;;29.50;13.30;;;;;;5067737;28;20443;-82
2022/08/11 13:57:04;;;;;;;1.40;1.30;;;29.50;13.60;;;;;;5065167;28;20478;-81
2022/08/11 13:59:41;;;;;;;1.10;1.10;;;29.50;13.40;;;;;;5068965;28;20454;-82
2022/08/11 14:02:27;;;;;;;1.40;1.30;;;29.60;14.80;;;;;;5066909;28;20466;-82
2022/08/11 14:05:02;;;;;;;2.00;1.27;;;29.60;13.60;;;;;;5067734;28;20450;-81
2022/08/11 14:07:36;;;;;;;2.20;1.33;;;29.70;14.10;;;;;;5065610;28;20447;-82
2022/08/11 14:10:07;;;;;;;1.10;1.10;;;29.70;15.20;;;;;;5065116;28;20442;-82
2022/08/11 14:15:28;;;;;;;1.50;1.40;;;29.70;16.10;;;;;;5064912;28;20454;-80
2022/08/11 14:18:03;;;;;;;1.30;1.20;;;29.80;17.10;;;;;;5072711;28;20726;-80
2022/08/11 14:23:17;;;;;;;1.10;1.00;;;29.80;15.10;;;;;;5073458;28;20488;-82
2022/08/11 14:28:32;;;;;;;1.50;1.40;;;29.70;14.30;;;;;;5073528;28;20458;-80
2022/08/11 14:31:10;;;;;;;1.50;1.30;;;29.70;12.90;;;;;;5074203;28;20541;-80
2022/08/11 14:33:41;;;;;;;1.87;1.30;;;29.70;12.60;;;;;;5073003;28;20449;-80
2022/08/11 14:36:31;;;;;;;3.00;1.23;;;29.70;12.90;;;;;;5071550;28;20454;-80
2022/08/11 14:39:02;;;;;;;1.40;1.30;;;29.80;12.80;;;;;;5053894;28;20494;-80
2022/08/11 14:47:26;;;;;;;1.10;1.10;;;29.80;14.00;;;;;;5064695;28;20463;-81
2022/08/11 14:49:58;;;;;;;1.20;1.10;;;29.70;24.80;;;;;;5068900;28;20618;-80
2022/08/11 14:52:44;;;;;;;1.60;1.50;;;29.80;14.40;;;;;;5060014;28;20498;-80
2022/08/11 14:58:01;;;;;;;1.30;1.20;;;29.80;15.60;;;;;;5062831;28;20565;-80
2022/08/11 15:00:31;;;;;;;1.17;1.07;;;29.80;13.20;;;;;;5071011;28;21021;-80
2022/08/11 15:03:11;;;;;;;1.10;1.10;;;29.80;25.60;;;;;;5069884;28;20687;-80
2022/08/11 15:05:47;;;;;;;1.23;1.13;;;29.80;25.70;;;;;;5069591;28;20469;-80
2022/08/11 15:14:04;;;;;;;1.00;1.00;;;29.80;13.60;;;;;;5069275;28;20898;-81
2022/08/11 15:19:20;;;;;;;1.20;1.10;;;29.90;13.70;;;;;;5065900;28;20493;-80
2022/08/11 15:24:37;;;;;;;1.57;1.17;;;29.90;13.70;;;;;;5068976;28;20450;-80
2022/08/11 15:38:42;;;;;;;1.80;1.10;;;29.90;12.70;;;;;;5069879;28;20482;-80
2022/08/11 15:47:14;;;;;;;1.23;1.13;;;29.90;14.10;;;;;;5102027;28;20462;-81
2022/08/11 15:49:44;;;;;;;1.30;1.20;;;29.80;13.00;;;;;;5069153;28;20513;-81
2022/08/11 15:52:42;;;;;;;1.20;1.00;;;29.90;12.80;;;;;;5069377;28;20498;-79
2022/08/11 15:55:11;;;;;;;1.17;1.07;;;29.90;13.30;;;;;;5066328;28;20454;-80
2022/08/11 16:06:22;;;;;;;1.50;1.40;;;29.80;11.10;;;;;;5096056;28;20980;-80
2022/08/11 16:08:54;;;;;;;1.77;1.30;;;29.80;12.30;;;;;;5067456;28;20532;-80
2022/08/11 16:11:25;;;;;;;1.30;1.20;;;29.80;11.60;;;;;;5068305;28;20512;-80
2022/08/11 16:16:41;;;;;;;1.50;1.40;;;29.80;12.40;;;;;;5069450;28;20489;-80
2022/08/11 16:19:11;;;;;;;3.10;1.20;;;29.80;11.90;;;;;;5069700;28;20509;-80
2022/08/11 16:21:42;;;;;;;2.70;1.80;;;29.80;11.60;;;;;;5068671;28;20483;-80
2022/08/11 16:24:13;;;;;;;1.30;1.20;;;29.80;12.40;;;;;;5069471;28;21034;-80
2022/08/11 16:27:04;;;;;;;2.40;1.27;;;29.80;12.00;;;;;;5059433;28;20503;-81
2022/08/11 16:29:44;;;;;;;1.20;1.10;;;29.80;11.10;;;;;;5069955;28;20466;-81
2022/08/11 16:32:17;;;;;;;1.40;1.10;;;29.80;11.10;;;;;;5064925;28;20480;-80
2022/08/11 16:40:23;;;;;;;1.20;1.10;;;29.80;11.00;;;;;;5065997;28;20528;-80
2022/08/11 16:48:31;;;;;;;1.40;1.30;;;29.80;11.00;;;;;;5067157;28;20450;-80
2022/08/11 16:51:06;;;;;;;2.20;2.10;;;29.70;10.70;;;;;;5067033;28;20538;-80
2022/08/11 16:53:37;;;;;;;1.40;1.20;;;29.70;10.00;;;;;;5065916;28;20477;-80
2022/08/11 16:56:29;;;;;;;1.50;1.20;;;29.70;9.40;;;;;;5066825;28;20532;-80
2022/08/11 16:59:16;;;;;;;1.30;1.20;;;29.70;9.60;;;;;;5068416;28;20470;-80
2022/08/11 17:01:51;;;;;;;1.40;1.30;;;29.80;14.00;;;;;;5068368;28;20519;-80
2022/08/11 17:13:31;;;;;;;1.60;1.23;;;29.60;8.40;;;;;;5068384;28;20462;-80
2022/08/11 17:16:07;;;;;;;1.10;1.00;;;29.60;7.10;;;;;;5065610;28;20462;-81
2022/08/11 17:18:43;;;;;;;1.10;1.10;;;29.50;8.50;;;;;;5066903;28;20474;-80
2022/08/11 17:21:25;;;;;;;1.63;1.30;;;29.50;7.70;;;;;;5057182;28;20481;-80
2022/08/11 17:23:56;;;;;;;1.40;1.30;;;29.50;8.40;;;;;;5060473;28;21065;-80
2022/08/11 17:26:53;;;;;;;1.13;1.00;;;29.60;20.40;;;;;;5057205;28;20443;-81
2022/08/11 17:29:28;;;;;;;1.60;1.50;;;29.50;10.00;;;;;;5062892;28;20451;-79
2022/08/11 17:37:46;;;;;;;2.27;1.20;;;29.50;9.80;;;;;;5039178;28;20492;-78
2022/08/11 17:40:20;;;;;;;1.30;1.20;;;29.50;7.10;;;;;;5055231;28;20541;-79
2022/08/11 17:48:26;;;;;;;2.07;1.57;;;29.40;8.60;;;;;;5058064;28;20524;-79
2022/08/11 17:50:57;;;;;;;1.37;1.27;;;29.40;7.60;;;;;;5071398;28;20511;-80
2022/08/11 18:05:06;;;;;;;1.60;1.30;;;29.30;12.40;;;;;;5067425;28;20817;-82
